Time;durP1;ratioP1;P1;durP2;ratioP2;P2;SDS_P1;SDS_P2;PMS_P1;PMS_P2;Temp;Humidity;BMP_temperature;BMP_pressure;BME280_temperature;BME280_humidity;BME280_pressure;Samples;Min_cycle;Max_cycle;Signal;HPM_P1;HPM_P2
2023/08/17 00:00:09;;;;;;;5.45;4.00;;;;;;;23.86;56.92;100896.52;1715529;83;21106;-59
2023/08/17 00:02:37;;;;;;;6.62;3.70;;;;;;;23.87;56.94;100901.00;1715629;84;21046;-61
2023/08/17 00:05:09;;;;;;;6.67;4.10;;;;;;;23.87;56.89;100902.41;1715551;84;21046;-59
2023/08/17 00:07:37;;;;;;;4.35;3.80;;;;;;;23.86;56.77;100895.13;1715541;84;21058;-60
2023/08/17 00:10:07;;;;;;;5.90;3.77;;;;;;;23.85;56.98;100887.84;1715330;84;21066;-61
2023/08/17 00:12:36;;;;;;;4.85;3.67;;;;;;;23.86;56.88;100890.92;1715552;84;21512;-61
2023/08/17 00:15:06;;;;;;;6.15;3.77;;;;;;;23.83;56.99;100895.11;1715636;82;21071;-60
2023/08/17 00:17:35;;;;;;;4.30;3.60;;;;;;;23.81;57.25;100899.30;1715411;83;21113;-61
2023/08/17 00:20:07;;;;;;;6.70;3.87;;;;;;;23.78;57.45;100903.48;1715319;83;21018;-59
2023/08/17 00:22:36;;;;;;;4.45;3.70;;;;;;;23.69;57.77;100896.73;1715525;84;21082;-60
2023/08/17 00:25:06;;;;;;;7.37;4.05;;;;;;;23.64;57.92;100897.55;1715321;84;21066;-60
2023/08/17 00:27:34;;;;;;;7.45;4.15;;;;;;;23.58;58.20;100897.80;1715593;83;21023;-61
2023/08/17 00:30:05;;;;;;;4.55;3.55;;;;;;;23.53;58.44;100899.13;1715677;82;20994;-60
2023/08/17 00:32:33;;;;;;;5.12;3.60;;;;;;;23.47;58.57;100906.66;1715506;83;21006;-61
2023/08/17 00:35:05;;;;;;;4.35;3.65;;;;;;;23.43;58.55;100911.11;1715562;84;21524;-60
2023/08/17 00:37:33;;;;;;;5.20;3.80;;;;;;;23.37;58.95;100911.60;1715609;84;21098;-61
2023/08/17 00:40:04;;;;;;;6.40;3.90;;;;;;;23.31;59.24;100909.88;1724461;82;21082;-61
2023/08/17 00:42:33;;;;;;;5.12;3.83;;;;;;;23.25;59.50;100905.92;1742771;82;21086;-60
2023/08/17 00:45:02;;;;;;;7.50;3.80;;;;;;;23.19;59.81;100910.64;1742861;82;21012;-60
2023/08/17 00:47:33;;;;;;;6.95;4.00;;;;;;;23.15;60.08;100908.66;1742925;82;21480;-60
2023/08/17 00:50:04;;;;;;;8.18;4.05;;;;;;;23.05;60.30;100904.67;1742890;82;21467;-60
2023/08/17 00:52:32;;;;;;;5.85;3.77;;;;;;;22.99;60.58;100908.55;1742809;82;21070;-60
2023/08/17 00:55:01;;;;;;;11.73;4.00;;;;;;;22.97;60.77;100907.13;1743161;82;20987;-59
2023/08/17 00:57:31;;;;;;;7.75;4.20;;;;;;;22.93;60.96;100904.02;1743064;82;21019;-62
2023/08/17 01:00:00;;;;;;;5.60;3.72;;;;;;;22.87;61.24;100911.23;1743089;82;21062;-60
2023/08/17 01:02:32;;;;;;;4.92;4.08;;;;;;;22.84;61.40;100901.99;1742415;82;21722;-60
2023/08/17 01:05:02;;;;;;;7.45;3.95;;;;;;;22.78;61.54;100901.91;1742895;82;21039;-61
2023/08/17 01:07:32;;;;;;;5.37;3.85;;;;;;;22.72;61.77;100904.34;1742859;82;21015;-61
2023/08/17 01:10:01;;;;;;;14.23;4.92;;;;;;;22.66;62.00;100903.17;1742836;82;21031;-60
2023/08/17 01:12:55;;;;;;;9.58;4.47;;;;;;;22.63;62.29;100909.29;1742948;82;21031;-59
2023/08/17 01:15:40;;;;;;;7.55;4.00;;;;;;;22.58;62.48;100921.26;1742975;82;21030;-59
2023/08/17 01:18:17;;;;;;;6.95;4.20;;;;;;;22.51;62.78;100913.64;1743086;82;21007;-61
2023/08/17 01:20:46;;;;;;;9.13;4.62;;;;;;;22.50;63.00;100912.52;1742876;82;21079;-60
2023/08/17 01:23:15;;;;;;;6.37;4.55;;;;;;;22.52;63.10;100922.87;1743083;82;21051;-60
2023/08/17 01:25:44;;;;;;;8.38;4.40;;;;;;;22.52;63.04;100917.28;1743194;82;21047;-61
2023/08/17 01:28:13;;;;;;;7.03;4.40;;;;;;;22.52;63.03;100915.33;1743083;82;21027;-59
2023/08/17 01:30:50;;;;;;;7.17;4.62;;;;;;;22.51;63.13;100916.44;1743072;82;21090;-61
2023/08/17 01:33:30;;;;;;;10.75;4.85;;;;;;;22.48;63.25;100909.98;1742977;82;21031;-60
2023/08/17 01:36:33;;;;;;;4.97;4.00;;;;;;;22.45;63.23;100915.55;1740944;82;21059;-60
2023/08/17 01:39:02;;;;;;;6.90;4.30;;;;;;;22.37;63.32;100917.97;1743004;81;21043;-60
2023/08/17 01:41:31;;;;;;;7.37;3.87;;;;;;;22.25;63.52;100917.28;1742892;82;21043;-61
2023/08/17 01:44:00;;;;;;;7.50;3.90;;;;;;;22.18;63.85;100916.64;1742992;82;21134;-61
2023/08/17 01:46:32;;;;;;;9.23;3.80;;;;;;;22.10;64.15;100914.58;1744664;82;21099;-60
2023/08/17 01:49:01;;;;;;;5.30;3.98;;;;;;;22.10;64.31;100919.31;1743148;82;21456;-60
2023/08/17 01:51:32;;;;;;;6.53;3.77;;;;;;;22.06;64.46;100919.00;1742978;82;21558;-61
2023/08/17 01:54:02;;;;;;;6.92;3.65;;;;;;;22.05;64.62;100916.47;1742856;82;21074;-60
2023/08/17 01:56:31;;;;;;;4.97;3.75;;;;;;;22.03;64.75;100915.34;1743116;82;21031;-61
2023/08/17 01:59:00;;;;;;;6.80;3.85;;;;;;;22.03;64.84;100915.89;1742915;82;21083;-61
2023/08/17 02:01:30;;;;;;;5.85;4.03;;;;;;;22.01;64.91;100915.27;1742913;82;21040;-61
2023/08/17 02:04:02;;;;;;;4.90;3.72;;;;;;;21.98;65.00;100924.16;1742860;82;21467;-61
2023/08/17 02:06:30;;;;;;;6.15;3.42;;;;;;;21.95;65.10;100924.13;1742838;82;21055;-61
2023/08/17 02:08:59;;;;;;;6.08;4.20;;;;;;;21.92;65.26;100926.05;1744723;82;21008;-60
2023/08/17 02:11:32;;;;;;;4.33;3.62;;;;;;;21.90;65.35;100926.86;1743089;82;21035;-60
2023/08/17 02:14:01;;;;;;;5.20;3.75;;;;;;;21.88;65.42;100924.88;1742857;82;21042;-60
2023/08/17 02:16:30;;;;;;;6.17;3.80;;;;;;;21.89;65.51;100921.54;1742985;82;21063;-60
2023/08/17 02:18:58;;;;;;;8.00;4.00;;;;;;;21.86;65.65;100927.64;1742821;82;21491;-61
2023/08/17 02:21:27;;;;;;;9.10;3.77;;;;;;;21.82;65.78;100928.16;1742884;82;21051;-60
2023/08/17 02:23:57;;;;;;;8.33;4.37;;;;;;;21.77;66.00;100928.09;1743010;82;21078;-60
2023/08/17 02:26:25;;;;;;;13.13;4.30;;;;;;;21.72;66.18;100931.37;1743008;82;21024;-60
2023/08/17 02:28:54;;;;;;;13.95;4.33;;;;;;;21.69;66.37;100929.94;1742842;82;21098;-59
2023/08/17 02:31:25;;;;;;;20.77;4.42;;;;;;;21.65;66.55;100927.38;1742778;82;21496;-60
2023/08/17 02:34:00;;;;;;;10.32;4.25;;;;;;;21.63;66.75;100935.70;1743040;82;21090;-60
2023/08/17 02:36:28;;;;;;;10.55;4.30;;;;;;;21.65;66.88;100935.74;1742915;82;21015;-61
2023/08/17 02:38:57;;;;;;;8.85;3.95;;;;;;;21.63;66.86;100935.16;1742948;82;21513;-61
2023/08/17 02:41:26;;;;;;;10.25;4.55;;;;;;;21.62;66.97;100932.08;1742756;82;21055;-60
2023/08/17 02:43:55;;;;;;;9.70;4.15;;;;;;;21.62;67.12;100934.02;1743030;82;21019;-60
2023/08/17 02:46:24;;;;;;;15.80;5.15;;;;;;;21.62;67.15;100932.63;1743056;82;21517;-60
2023/08/17 02:48:54;;;;;;;8.48;4.78;;;;;;;21.63;67.09;100938.50;1742853;82;21020;-60
2023/08/17 02:51:22;;;;;;;12.00;4.83;;;;;;;21.60;67.06;100934.28;1742893;82;21475;-61
2023/08/17 02:53:51;;;;;;;11.75;4.17;;;;;;;21.57;67.23;100937.58;1743110;82;21067;-62
2023/08/17 02:56:20;;;;;;;11.65;4.90;;;;;;;21.55;67.44;100941.18;1742849;82;21019;-59
2023/08/17 02:58:51;;;;;;;9.88;4.40;;;;;;;21.56;67.51;100938.69;1742980;82;21074;-60
2023/08/17 03:01:21;;;;;;;12.45;4.55;;;;;;;21.56;67.53;100936.44;1743050;82;21055;-60
2023/08/17 03:03:50;;;;;;;8.43;4.92;;;;;;;21.57;67.50;100940.92;1742653;82;21034;-62
2023/08/17 03:06:19;;;;;;;9.08;4.83;;;;;;;21.56;67.53;100946.20;1742799;82;21004;-62
2023/08/17 03:08:48;;;;;;;9.40;5.05;;;;;;;21.51;67.60;100940.84;1742804;82;21612;-61
2023/08/17 03:11:16;;;;;;;12.03;5.35;;;;;;;21.51;67.63;100942.80;1742810;82;21082;-61
2023/08/17 03:13:47;;;;;;;10.32;4.30;;;;;;;21.50;67.71;100937.77;1742725;82;21012;-61
2023/08/17 03:16:15;;;;;;;14.65;5.55;;;;;;;21.51;67.78;100944.19;1742752;82;21482;-61
2023/08/17 03:18:45;;;;;;;14.60;5.45;;;;;;;21.49;67.86;100941.66;1742734;82;21487;-61
2023/08/17 03:21:15;;;;;;;14.47;5.37;;;;;;;21.48;67.94;100948.34;1742915;82;21039;-62
2023/08/17 03:23:43;;;;;;;16.90;5.70;;;;;;;21.47;68.12;100943.86;1742716;82;21552;-60
2023/08/17 03:26:12;;;;;;;11.80;5.00;;;;;;;21.44;68.36;100943.50;1743005;82;21054;-61
2023/08/17 03:28:41;;;;;;;14.43;5.53;;;;;;;21.43;68.53;100947.38;1743029;82;21027;-61
2023/08/17 03:31:10;;;;;;;16.25;5.42;;;;;;;21.46;68.59;100942.17;1743006;82;21027;-60
2023/08/17 03:33:40;;;;;;;13.45;5.90;;;;;;;21.48;68.67;100946.09;1742959;82;21028;-61
2023/08/17 03:36:09;;;;;;;18.73;6.00;;;;;;;21.48;68.77;100948.88;1742759;82;21062;-60
2023/08/17 03:38:39;;;;;;;14.03;5.67;;;;;;;21.45;68.90;100947.97;1742951;82;21020;-60
2023/08/17 03:41:09;;;;;;;10.35;5.35;;;;;;;21.49;69.02;100950.58;1745979;82;21077;-61
2023/08/17 03:43:38;;;;;;;27.95;18.02;;;;;;;21.51;69.09;100949.22;1751245;82;21042;-60
2023/08/17 03:46:08;;;;;;;30.15;16.17;;;;;;;21.55;69.08;100951.48;1751376;82;21098;-61
2023/08/17 03:48:37;;;;;;;169.32;15.08;;;;;;;21.54;69.14;100952.04;1751198;82;21516;-60
2023/08/17 03:51:07;;;;;;;14.68;7.10;;;;;;;21.54;69.23;100950.64;1751423;81;21007;-59
2023/08/17 03:53:37;;;;;;;60.48;37.28;;;;;;;21.56;69.30;100950.39;1751283;81;21023;-61
2023/08/17 03:56:05;;;;;;;267.73;146.98;;;;;;;21.59;69.32;100946.53;1751280;82;21486;-60
2023/08/17 03:58:35;;;;;;;27.27;13.98;;;;;;;21.65;69.33;100942.72;1751428;82;21051;-60
2023/08/17 04:01:06;;;;;;;38.40;9.70;;;;;;;21.69;69.27;100941.65;1751213;82;21038;-61
2023/08/17 04:03:35;;;;;;;18.23;6.55;;;;;;;21.72;69.16;100943.38;1751246;82;21552;-60
2023/08/17 04:06:10;;;;;;;14.60;7.10;;;;;;;21.73;69.11;100939.48;1751163;82;21050;-60
2023/08/17 04:08:38;;;;;;;41.70;8.65;;;;;;;21.77;68.97;100942.05;1751267;82;21066;-61
2023/08/17 04:11:07;;;;;;;11.10;6.20;;;;;;;21.80;68.65;100941.52;1751441;82;21285;-60
2023/08/17 04:13:37;;;;;;;14.23;6.28;;;;;;;21.86;68.33;100945.78;1751110;82;21054;-61
2023/08/17 04:16:06;;;;;;;14.18;6.47;;;;;;;21.88;68.26;100936.59;1751371;81;21473;-60
2023/08/17 04:18:35;;;;;;;10.43;5.62;;;;;;;21.93;68.12;100945.03;1751519;82;21042;-60
2023/08/17 04:21:05;;;;;;;28.70;6.97;;;;;;;21.97;68.02;100940.06;1751307;81;21022;-59
2023/08/17 04:23:35;;;;;;;19.23;6.47;;;;;;;22.00;67.58;100942.33;1751292;82;21073;-61
2023/08/17 04:26:04;;;;;;;12.58;5.95;;;;;;;22.05;67.32;100936.00;1751752;82;21027;-61
2023/08/17 04:28:33;;;;;;;14.47;6.17;;;;;;;22.11;66.78;100945.61;1751331;82;21038;-61
2023/08/17 04:31:02;;;;;;;11.05;5.83;;;;;;;22.17;66.49;100945.66;1751379;81;21514;-62
2023/08/17 04:33:33;;;;;;;11.83;6.12;;;;;;;22.22;66.12;100953.55;1751323;81;21062;-60
2023/08/17 04:36:03;;;;;;;8.53;5.33;;;;;;;22.29;65.92;100947.20;1751457;82;21467;-61
2023/08/17 04:38:33;;;;;;;9.53;5.45;;;;;;;22.34;65.75;100951.45;1751300;82;20991;-61
2023/08/17 04:41:01;;;;;;;8.73;4.97;;;;;;;22.37;65.26;100946.73;1751427;82;21062;-62
2023/08/17 04:43:31;;;;;;;9.55;4.40;;;;;;;22.42;64.98;100943.16;1751268;82;21474;-61
2023/08/17 04:46:01;;;;;;;12.58;4.58;;;;;;;22.48;64.27;100943.50;1751256;81;21560;-62
2023/08/17 04:48:32;;;;;;;10.40;4.80;;;;;;;22.55;63.36;100948.32;1751607;82;21026;-59
2023/08/17 04:51:02;;;;;;;13.35;5.87;;;;;;;22.63;62.40;100953.98;1751452;82;21023;-61
2023/08/17 04:53:32;;;;;;;20.77;6.10;;;;;;;22.70;62.22;100950.42;1751476;82;21451;-59
2023/08/17 04:56:02;;;;;;;9.65;4.53;;;;;;;22.78;62.14;100954.16;1751300;82;21026;-61
2023/08/17 04:58:32;;;;;;;12.20;5.03;;;;;;;22.84;61.52;100948.09;1751256;82;21509;-61
2023/08/17 05:01:01;;;;;;;13.03;5.70;;;;;;;22.91;61.07;100952.91;1751323;82;21066;-61
2023/08/17 05:03:31;;;;;;;9.33;4.70;;;;;;;22.95;60.69;100952.11;1751257;82;21043;-60
2023/08/17 05:06:01;;;;;;;14.33;5.00;;;;;;;23.00;60.28;100954.95;1751243;82;21063;-61
2023/08/17 05:08:32;;;;;;;10.48;5.20;;;;;;;23.06;59.69;100942.70;1751230;82;21031;-61
2023/08/17 05:11:02;;;;;;;10.45;4.70;;;;;;;23.14;59.32;100953.10;1751524;81;21070;-60
2023/08/17 05:13:31;;;;;;;15.10;5.45;;;;;;;23.19;59.02;100951.73;1751522;82;21042;-60
2023/08/17 05:16:02;;;;;;;12.90;5.20;;;;;;;23.25;58.73;100952.06;1751325;82;21011;-60
2023/08/17 05:18:32;;;;;;;16.02;4.50;;;;;;;23.30;58.63;100952.95;1751175;82;21051;-61
2023/08/17 05:21:02;;;;;;;9.75;4.15;;;;;;;23.33;58.53;100946.81;1751389;82;21022;-60
2023/08/17 05:23:34;;;;;;;15.58;4.53;;;;;;;23.38;58.16;100951.05;1751316;81;21047;-60
2023/08/17 05:26:03;;;;;;;10.38;4.60;;;;;;;23.43;57.96;100954.46;1751418;82;21003;-61
2023/08/17 05:28:32;;;;;;;8.55;4.00;;;;;;;23.48;57.95;100956.45;1751478;82;21108;-62
2023/08/17 05:31:07;;;;;;;8.13;3.85;;;;;;;23.53;57.64;100949.48;1751441;82;21027;-61
2023/08/17 05:33:40;;;;;;;9.48;4.30;;;;;;;23.57;57.27;100952.06;1751392;82;21062;-62
2023/08/17 05:36:09;;;;;;;10.78;4.30;;;;;;;23.61;57.22;100951.25;1751382;81;21093;-61
2023/08/17 05:38:38;;;;;;;12.35;4.90;;;;;;;23.65;57.01;100951.55;1751249;81;21549;-61
2023/08/17 05:41:07;;;;;;;17.12;8.90;;;;;;;23.68;56.98;100947.66;1750602;82;21104;-61
2023/08/17 05:43:36;;;;;;;12.23;5.78;;;;;;;23.71;57.00;100946.27;1743108;82;21039;-62
2023/08/17 05:46:05;;;;;;;8.48;4.28;;;;;;;23.73;56.79;100945.44;1742871;82;21059;-61
2023/08/17 05:48:34;;;;;;;11.53;4.30;;;;;;;23.77;56.43;100942.94;1742998;82;21022;-60
2023/08/17 05:51:03;;;;;;;4.97;3.62;;;;;;;23.80;56.02;100940.44;1742782;82;21489;-60
2023/08/17 05:53:32;;;;;;;8.75;4.25;;;;;;;23.83;55.48;100946.89;1742677;82;21569;-61
2023/08/17 05:56:01;;;;;;;8.33;3.45;;;;;;;23.86;55.49;100943.55;1742937;82;21011;-60
2023/08/17 05:58:31;;;;;;;8.10;3.60;;;;;;;23.89;55.07;100945.80;1742680;82;21456;-61
2023/08/17 06:01:08;;;;;;;7.22;4.35;;;;;;;23.92;54.67;100948.05;1742753;82;21505;-60
2023/08/17 06:03:38;;;;;;;9.90;4.10;;;;;;;23.96;54.44;100946.95;1743025;82;21090;-60
2023/08/17 06:06:07;;;;;;;9.63;4.50;;;;;;;23.96;54.42;100951.14;1742682;82;21031;-60
2023/08/17 06:08:36;;;;;;;15.45;3.95;;;;;;;23.95;54.41;100943.86;1742963;82;21023;-60
2023/08/17 06:11:04;;;;;;;6.58;3.80;;;;;;;23.97;54.34;100942.47;1742848;82;21087;-61
2023/08/17 06:13:35;;;;;;;13.50;4.00;;;;;;;23.98;54.18;100948.91;1742781;82;21501;-61
2023/08/17 06:16:05;;;;;;;9.98;4.00;;;;;;;24.00;54.20;100947.53;1742750;82;21420;-61
2023/08/17 06:18:35;;;;;;;14.10;4.72;;;;;;;24.02;54.40;100942.50;1744441;82;21035;-61
2023/08/17 06:21:04;;;;;;;9.10;3.65;;;;;;;24.08;54.57;100947.59;1743039;82;21043;-61
2023/08/17 06:23:33;;;;;;;6.35;3.70;;;;;;;24.12;54.40;100944.52;1742887;82;21098;-60
2023/08/17 06:26:03;;;;;;;12.45;3.90;;;;;;;24.17;54.08;100948.73;1742827;82;21107;-60
2023/08/17 06:28:32;;;;;;;13.13;4.85;;;;;;;24.22;54.07;100947.36;1743133;82;21098;-62
2023/08/17 06:31:01;;;;;;;13.72;4.85;;;;;;;24.24;54.14;100945.68;1742966;82;20991;-61
2023/08/17 06:33:30;;;;;;;8.28;3.80;;;;;;;24.28;54.15;100942.09;1742712;82;21447;-61
2023/08/17 06:36:00;;;;;;;11.45;3.87;;;;;;;24.39;53.91;100940.71;1742754;82;21447;-61
2023/08/17 06:38:30;;;;;;;7.15;3.67;;;;;;;24.65;53.51;100942.44;1742800;82;21027;-60
2023/08/17 06:40:59;;;;;;;11.97;3.47;;;;;;;25.03;52.70;100943.93;1742769;82;21071;-60
2023/08/17 06:43:28;;;;;;;7.58;3.22;;;;;;;25.54;51.41;100947.55;1742688;82;21086;-60
2023/08/17 06:46:00;;;;;;;8.38;3.10;;;;;;;26.22;49.39;100952.69;1742773;82;21031;-60
2023/08/17 06:48:28;;;;;;;9.73;3.25;;;;;;;26.87;47.31;100942.21;1742960;82;21059;-62
2023/08/17 06:50:58;;;;;;;10.28;3.40;;;;;;;27.40;46.43;100941.79;1743008;82;21035;-60
2023/08/17 06:53:27;;;;;;;7.62;3.33;;;;;;;27.82;45.38;100947.84;1742769;82;21060;-60
2023/08/17 06:55:56;;;;;;;12.15;3.62;;;;;;;28.23;44.13;100945.37;1742657;82;21083;-61
2023/08/17 06:58:25;;;;;;;9.58;3.40;;;;;;;28.58;43.53;100944.91;1742945;82;21106;-59
2023/08/17 07:00:55;;;;;;;7.25;2.95;;;;;;;28.90;42.87;100943.34;1743063;82;21055;-60
2023/08/17 07:03:24;;;;;;;7.20;2.90;;;;;;;29.20;41.45;100942.81;1742941;82;21456;-60
2023/08/17 07:05:54;;;;;;;7.72;2.80;;;;;;;29.43;40.75;100940.18;1742989;82;21094;-61
2023/08/17 07:08:24;;;;;;;5.92;2.37;;;;;;;29.72;40.06;100946.42;1744445;82;21502;-61
2023/08/17 07:10:53;;;;;;;4.78;2.50;;;;;;;30.08;39.37;100938.11;1742973;82;21250;-61
2023/08/17 07:13:23;;;;;;;7.08;3.00;;;;;;;30.42;38.50;100937.63;1743091;82;21411;-62
2023/08/17 07:15:53;;;;;;;6.95;2.70;;;;;;;30.60;37.83;100935.86;1743105;82;21015;-60
2023/08/17 07:18:22;;;;;;;6.30;2.72;;;;;;;30.69;37.70;100931.70;1742738;82;21483;-60
2023/08/17 07:20:51;;;;;;;3.90;2.77;;;;;;;30.86;37.36;100927.59;1742732;82;21601;-61
2023/08/17 07:23:20;;;;;;;15.32;4.40;;;;;;;30.97;37.29;100925.34;1742838;82;21111;-61
2023/08/17 07:25:50;;;;;;;5.90;2.98;;;;;;;31.14;37.12;100919.22;1742760;82;21451;-60
2023/08/17 07:28:19;;;;;;;10.58;3.20;;;;;;;31.35;36.99;100928.66;1742881;82;21035;-61
2023/08/17 07:30:48;;;;;;;8.78;3.12;;;;;;;31.57;36.26;100930.59;1742924;82;21023;-60
2023/08/17 07:33:17;;;;;;;5.03;2.80;;;;;;;31.77;35.92;100919.55;1742975;82;21075;-61
2023/08/17 07:35:48;;;;;;;6.65;3.00;;;;;;;31.94;34.98;100923.06;1742717;82;21083;-61
2023/08/17 07:38:18;;;;;;;6.50;2.80;;;;;;;31.93;35.20;100924.22;1742782;82;21055;-61
2023/08/17 07:40:47;;;;;;;6.37;2.67;;;;;;;32.00;35.04;100933.66;1742705;82;21047;-60
2023/08/17 07:43:15;;;;;;;4.33;2.25;;;;;;;32.09;34.46;100928.85;1748593;82;21050;-60
2023/08/17 07:45:46;;;;;;;4.03;2.40;;;;;;;32.08;33.88;100930.02;1751296;82;21070;-60
2023/08/17 07:48:15;;;;;;;6.12;2.05;;;;;;;32.20;33.64;100926.55;1746820;81;21090;-61
2023/08/17 07:50:50;;;;;;;6.62;1.80;;;;;;;32.40;32.94;100927.36;1751430;82;21035;-60
2023/08/17 07:53:19;;;;;;;4.83;2.40;;;;;;;32.59;32.93;100929.91;1723742;82;21038;-59
2023/08/17 07:55:50;;;;;;;4.28;3.20;;;;;;;32.72;32.85;100937.42;1751438;80;21333;-62
2023/08/17 07:58:23;;;;;;;6.78;2.05;;;;;;;32.68;32.17;100929.33;1760060;80;21688;-63
2023/08/17 08:00:52;;;;;;;5.92;2.40;;;;;;;32.68;32.19;100932.16;1757017;81;21106;-62
2023/08/17 08:03:21;;;;;;;5.20;2.27;;;;;;;32.76;31.99;100935.59;1751337;82;21447;-62
2023/08/17 08:05:50;;;;;;;4.55;2.05;;;;;;;32.83;31.90;100933.70;1751078;81;21063;-62
2023/08/17 08:08:19;;;;;;;4.70;2.65;;;;;;;32.89;31.94;100933.78;1751280;81;21076;-61
2023/08/17 08:10:49;;;;;;;5.00;1.87;;;;;;;33.06;31.08;100936.60;1751235;82;21075;-61
2023/08/17 08:13:19;;;;;;;6.08;1.95;;;;;;;33.16;31.25;100924.05;1750964;82;21047;-63
2023/08/17 08:15:51;;;;;;;4.10;2.52;;;;;;;33.13;30.90;100928.41;1751063;82;21067;-63
2023/08/17 08:18:20;;;;;;;6.22;2.30;;;;;;;32.98;31.20;100922.66;1751120;82;21491;-63
2023/08/17 08:20:50;;;;;;;4.10;2.17;;;;;;;32.92;31.58;100929.69;1751320;82;21074;-61
2023/08/17 08:23:20;;;;;;;7.58;2.15;;;;;;;33.03;31.21;100924.49;1751176;81;21034;-60
2023/08/17 08:25:49;;;;;;;2.70;1.65;;;;;;;33.05;31.11;100923.57;1751018;82;21046;-60
2023/08/17 08:28:19;;;;;;;3.70;1.80;;;;;;;33.06;31.26;100928.92;1751187;82;21019;-59
2023/08/17 08:30:48;;;;;;;7.40;2.40;;;;;;;33.20;30.96;100924.49;1751217;82;21055;-60
2023/08/17 08:33:17;;;;;;;3.55;2.10;;;;;;;33.38;30.90;100922.47;1751156;82;21079;-59
2023/08/17 08:35:46;;;;;;;4.10;1.87;;;;;;;33.56;30.62;100925.51;1751544;80;21094;-62
2023/08/17 08:38:15;;;;;;;5.75;1.77;;;;;;;33.64;30.12;100931.74;1715891;82;21351;-60
2023/08/17 08:40:44;;;;;;;5.12;1.98;;;;;;;33.65;30.28;100924.05;1751342;82;21043;-61
2023/08/17 08:43:14;;;;;;;3.80;1.90;;;;;;;33.76;30.08;100924.51;1750993;82;21625;-60
2023/08/17 08:45:47;;;;;;;4.72;1.90;;;;;;;33.89;29.59;100923.50;1751032;82;21038;-59
2023/08/17 08:48:16;;;;;;;4.83;2.00;;;;;;;33.76;29.67;100920.24;1723463;82;21035;-62
2023/08/17 08:50:46;;;;;;;9.85;2.00;;;;;;;33.66;29.97;100920.88;1722276;82;21515;-59
2023/08/17 08:53:15;;;;;;;4.53;1.87;;;;;;;33.80;29.45;100923.48;1722124;82;21129;-61
2023/08/17 08:55:58;;;;;;;4.70;1.80;;;;;;;33.90;29.19;100913.80;1751266;82;21074;-60
2023/08/17 08:58:27;;;;;;;3.35;1.90;;;;;;;33.77;29.34;100921.91;1750171;82;21027;-60
2023/08/17 09:00:55;;;;;;;6.37;2.00;;;;;;;33.49;29.84;100915.25;1751141;82;21034;-61
2023/08/17 09:03:25;;;;;;;4.55;1.70;;;;;;;33.23;30.23;100920.14;1751540;82;21054;-60
2023/08/17 09:05:54;;;;;;;3.95;2.10;;;;;;;33.04;30.74;100922.73;1721318;83;21140;-60
2023/08/17 09:08:28;;;;;;;5.17;2.27;;;;;;;32.78;31.08;100921.93;1716999;82;21054;-60
2023/08/17 09:10:57;;;;;;;3.12;1.77;;;;;;;32.52;31.31;100907.70;1721452;83;21070;-63
2023/08/17 09:13:26;;;;;;;3.40;2.10;;;;;;;32.45;31.59;100912.43;1721504;83;21066;-61
2023/08/17 09:15:55;;;;;;;4.70;2.60;;;;;;;32.44;31.54;100910.76;1721393;83;21137;-58
2023/08/17 09:18:24;;;;;;;6.10;2.85;;;;;;;32.38;31.46;100901.33;1693083;83;21042;-59
2023/08/17 09:20:53;;;;;;;4.80;3.30;;;;;;;32.24;31.58;100906.28;1721463;82;21043;-61
2023/08/17 09:23:24;;;;;;;3.50;2.60;;;;;;;32.01;31.98;100905.56;1721288;83;21137;-61
2023/08/17 09:25:57;;;;;;;4.47;2.05;;;;;;;31.84;32.25;100901.48;1693049;83;21059;-60
2023/08/17 09:28:24;;;;;;;2.87;2.10;;;;;;;31.68;32.50;100901.64;1721354;82;21074;-60
2023/08/17 09:30:58;;;;;;;4.30;2.25;;;;;;;31.47;33.05;100905.64;1721430;83;21062;-62
2023/08/17 09:33:30;;;;;;;6.97;2.60;;;;;;;31.28;33.48;100896.55;1721382;83;21046;-61
2023/08/17 09:35:59;;;;;;;3.35;2.20;;;;;;;31.18;33.84;100906.12;1721242;82;21058;-59
2023/08/17 09:38:29;;;;;;;3.42;2.10;;;;;;;31.08;33.99;100906.36;1721270;83;21493;-58
2023/08/17 09:41:00;;;;;;;8.13;2.30;;;;;;;30.98;34.26;100907.20;1721517;83;21046;-61
2023/08/17 09:43:32;;;;;;;7.67;2.60;;;;;;;30.87;34.32;100900.39;1680393;84;21070;-59
2023/08/17 09:46:07;;;;;;;2.60;2.15;;;;;;;30.69;34.49;100907.07;1688456;85;21470;-58
2023/08/17 09:48:32;;;;;;;7.50;2.75;;;;;;;30.47;34.90;100902.73;1687678;85;21087;-59
2023/08/17 09:51:02;;;;;;;3.05;2.05;;;;;;;30.32;35.39;100905.34;1688305;85;21130;-58
2023/08/17 09:53:35;;;;;;;3.00;2.02;;;;;;;30.29;35.50;100896.09;1688676;85;21071;-59
2023/08/17 09:56:10;;;;;;;4.60;2.00;;;;;;;30.24;35.54;100896.20;1688676;85;21131;-58
2023/08/17 09:58:37;;;;;;;4.78;2.30;;;;;;;30.22;35.37;100895.11;1688293;84;21043;-60
2023/08/17 10:01:06;;;;;;;3.00;2.15;;;;;;;30.23;35.46;100891.70;1659900;85;21062;-61
2023/08/17 10:03:35;;;;;;;3.67;2.27;;;;;;;30.25;35.36;100893.63;1660959;83;21062;-59
2023/08/17 10:06:10;;;;;;;4.83;2.30;;;;;;;30.26;35.16;100895.30;1717169;82;21055;-63
2023/08/17 10:08:46;;;;;;;4.10;2.17;;;;;;;30.23;35.21;100881.23;1717321;83;21059;-59
2023/08/17 10:11:19;;;;;;;5.00;2.10;;;;;;;30.15;35.34;100891.88;1717458;83;21130;-60
2023/08/17 10:14:05;;;;;;;3.80;2.00;;;;;;;30.04;35.19;100892.42;1716935;83;21291;-58
2023/08/17 10:16:43;;;;;;;3.83;2.80;;;;;;;29.82;35.36;100878.41;1743759;82;21053;-59
2023/08/17 10:19:27;;;;;;;4.47;2.40;;;;;;;29.76;35.77;100885.31;1744061;82;21147;-59
2023/08/17 10:22:22;;;;;;;5.03;2.20;;;;;;;29.79;35.53;100881.03;1744204;82;21080;-57
2023/08/17 10:24:51;;;;;;;4.10;2.20;;;;;;;29.69;35.78;100876.42;1712209;82;21146;-61
2023/08/17 10:27:21;;;;;;;5.40;2.12;;;;;;;29.62;35.85;100883.07;1719634;82;21532;-60
2023/08/17 10:29:51;;;;;;;2.35;2.00;;;;;;;29.52;36.03;100879.04;1744371;82;21089;-59
2023/08/17 10:32:22;;;;;;;4.53;2.25;;;;;;;29.44;35.71;100879.19;1744219;82;21053;-59
2023/08/17 10:34:51;;;;;;;4.33;1.90;;;;;;;29.42;35.99;100880.63;1744036;82;21044;-59
2023/08/17 10:37:21;;;;;;;7.30;2.55;;;;;;;29.48;35.84;100864.70;1743867;82;21566;-59
2023/08/17 10:39:51;;;;;;;4.67;1.92;;;;;;;29.54;35.90;100869.68;1743993;82;21088;-58
2023/08/17 10:42:36;;;;;;;3.35;2.05;;;;;;;29.57;35.83;100863.41;1744188;82;21036;-58
2023/08/17 10:45:29;;;;;;;2.25;1.80;;;;;;;29.63;35.80;100867.80;1744020;82;21165;-59
2023/08/17 10:48:11;;;;;;;5.47;2.05;;;;;;;29.56;35.27;100875.85;1744182;82;21172;-59
2023/08/17 10:50:40;;;;;;;6.62;3.55;;;;;;;29.39;35.41;100872.77;1744223;82;21248;-58
2023/08/17 10:53:17;;;;;;;3.95;1.98;;;;;;;29.26;35.55;100865.94;1735316;82;21044;-59
2023/08/17 10:55:52;;;;;;;6.10;2.27;;;;;;;29.23;35.62;100865.98;1717219;82;21086;-59
2023/08/17 10:58:18;;;;;;;3.85;2.00;;;;;;;29.24;35.97;100865.41;1717098;83;21175;-58
2023/08/17 11:00:49;;;;;;;3.22;2.10;;;;;;;29.34;36.01;100862.42;1713572;83;21094;-60
2023/08/17 11:03:21;;;;;;;3.92;2.08;;;;;;;29.39;35.94;100862.89;1659688;85;21096;-60
2023/08/17 11:05:57;;;;;;;5.47;2.15;;;;;;;29.39;36.27;100862.89;1688322;84;21066;-59
2023/08/17 11:08:43;;;;;;;4.08;2.30;;;;;;;29.35;36.46;100857.03;1688664;85;21127;-60
2023/08/17 11:11:14;;;;;;;5.45;2.37;;;;;;;29.31;36.61;100858.23;1687645;85;21027;-61
2023/08/17 11:13:44;;;;;;;3.35;2.00;;;;;;;29.27;36.20;100851.54;1688677;85;21941;-61
2023/08/17 11:16:14;;;;;;;3.87;2.37;;;;;;;29.13;36.41;100845.01;1688400;85;21655;-59
2023/08/17 11:18:48;;;;;;;8.90;2.10;;;;;;;29.13;36.44;100852.06;1688451;84;21659;-60
2023/08/17 11:21:21;;;;;;;3.45;2.27;;;;;;;29.12;36.49;100846.16;1688700;85;21094;-60
2023/08/17 11:23:50;;;;;;;2.92;2.10;;;;;;;29.16;36.62;100849.19;1659899;85;21507;-60
2023/08/17 11:26:20;;;;;;;4.47;2.30;;;;;;;29.21;36.67;100839.22;1688630;85;21062;-59
2023/08/17 11:28:49;;;;;;;4.05;2.40;;;;;;;29.19;36.67;100839.53;1688517;85;21520;-59
2023/08/17 11:31:18;;;;;;;7.30;2.50;;;;;;;29.19;36.67;100839.53;1688598;85;21038;-60
2023/08/17 11:33:47;;;;;;;5.10;2.10;;;;;;;29.18;36.62;100844.91;1688646;85;21505;-60
2023/08/17 11:36:16;;;;;;;7.15;2.40;;;;;;;29.18;36.76;100839.27;1688572;84;21038;-59